createdAt,value
2023-09-06T00:00:16.908Z,22.70
2023-09-06T00:03:02.499Z,22.40
2023-09-06T00:05:48.282Z,22.40
2023-09-06T00:08:35.775Z,22.50
2023-09-06T00:11:21.594Z,22.50
2023-09-06T00:14:07.919Z,22.50
2023-09-06T00:16:55.222Z,22.50
2023-09-06T00:19:40.849Z,22.40
2023-09-06T00:22:26.427Z,22.40
2023-09-06T00:25:12.018Z,22.20
2023-09-06T00:28:00.869Z,22.20
2023-09-06T00:30:46.993Z,22.10
2023-09-06T00:33:34.828Z,22.10
2023-09-06T00:36:20.419Z,22.00
2023-09-06T00:39:07.555Z,22.00
2023-09-06T00:41:53.325Z,21.90
2023-09-06T00:44:38.934Z,22.00
2023-09-06T00:47:24.798Z,21.90
2023-09-06T00:50:12.377Z,21.90
2023-09-06T00:52:58.627Z,21.90
2023-09-06T00:55:44.775Z,21.80
2023-09-06T00:58:31.539Z,21.70
2023-09-06T01:01:17.717Z,21.70
2023-09-06T01:04:04.253Z,21.60
2023-09-06T01:06:58.506Z,21.50
2023-09-06T01:09:45.181Z,21.50
2023-09-06T01:12:30.983Z,21.50
2023-09-06T01:15:17.052Z,21.50
2023-09-06T01:18:05.985Z,21.40
2023-09-06T01:20:57.806Z,21.30
2023-09-06T01:23:46.129Z,21.30
2023-09-06T01:26:33.416Z,21.30
2023-09-06T01:29:19.530Z,21.30
2023-09-06T01:32:06.545Z,21.20
2023-09-06T01:34:55.501Z,21.30
2023-09-06T01:37:41.619Z,21.30
2023-09-06T01:40:29.118Z,21.30
2023-09-06T01:43:14.969Z,21.30
2023-09-06T01:46:00.877Z,21.20
2023-09-06T01:48:48.098Z,21.30
2023-09-06T01:51:33.901Z,21.40
2023-09-06T01:54:20.199Z,21.40
2023-09-06T01:57:07.561Z,21.30
2023-09-06T01:59:53.503Z,21.30
2023-09-06T02:02:39.405Z,21.20
2023-09-06T02:05:25.877Z,21.10
2023-09-06T02:08:12.674Z,21.20
2023-09-06T02:10:58.240Z,21.30
2023-09-06T02:13:46.518Z,21.30
2023-09-06T02:16:32.449Z,21.30
2023-09-06T02:19:18.908Z,21.40
2023-09-06T02:22:05.401Z,21.40
2023-09-06T02:24:51.510Z,21.20
2023-09-06T02:27:38.172Z,21.20
2023-09-06T02:30:25.135Z,21.10
2023-09-06T02:33:14.983Z,21.20
2023-09-06T02:36:00.867Z,21.30
2023-09-06T02:38:48.260Z,21.50
2023-09-06T02:41:34.437Z,21.50
2023-09-06T02:44:19.968Z,21.50
2023-09-06T02:47:10.746Z,21.60
2023-09-06T02:50:01.808Z,21.70
2023-09-06T02:52:48.076Z,21.70
2023-09-06T02:55:36.596Z,21.50
2023-09-06T02:58:27.291Z,21.50
2023-09-06T03:01:21.054Z,21.50
2023-09-06T03:04:09.561Z,21.50
2023-09-06T03:06:55.623Z,21.50
2023-09-06T03:09:43.658Z,21.60
2023-09-06T03:12:30.365Z,21.50
2023-09-06T03:15:16.777Z,21.50
2023-09-06T03:18:06.069Z,21.60
2023-09-06T03:20:56.543Z,21.60
2023-09-06T03:23:46.942Z,21.60
2023-09-06T03:26:34.503Z,21.40
2023-09-06T03:29:23.730Z,21.50
2023-09-06T03:32:10.173Z,21.50
2023-09-06T03:34:57.813Z,21.40
2023-09-06T03:37:44.847Z,21.30
2023-09-06T03:40:37.882Z,21.30
2023-09-06T03:43:31.947Z,21.40
2023-09-06T03:46:20.732Z,21.40
2023-09-06T03:49:08.163Z,21.50
2023-09-06T03:51:54.417Z,21.30
2023-09-06T03:54:41.886Z,21.30
2023-09-06T03:57:27.831Z,21.30
2023-09-06T04:00:33.144Z,21.20
2023-09-06T04:03:27.849Z,21.20
2023-09-06T04:06:16.977Z,21.20
2023-09-06T04:09:07.100Z,21.20
2023-09-06T04:11:54.660Z,21.20
2023-09-06T04:14:41.001Z,21.10
2023-09-06T04:17:28.951Z,20.80
2023-09-06T04:20:21.853Z,20.80
2023-09-06T04:23:09.355Z,21.00
2023-09-06T04:26:01.647Z,20.80
2023-09-06T04:28:51.692Z,21.10
2023-09-06T04:31:42.654Z,21.00
2023-09-06T04:34:30.389Z,21.00
2023-09-06T04:37:19.718Z,21.00
2023-09-06T04:40:09.672Z,21.10
2023-09-06T04:42:55.504Z,20.80
2023-09-06T04:45:43.326Z,20.50
2023-09-06T04:48:31.086Z,20.50
2023-09-06T04:51:19.844Z,20.60
2023-09-06T04:54:05.664Z,20.50
2023-09-06T04:56:55.483Z,20.60
2023-09-06T04:59:43.610Z,20.70
2023-09-06T05:02:30.962Z,20.70
2023-09-06T05:05:17.365Z,20.90
2023-09-06T05:08:04.702Z,20.90
2023-09-06T05:10:51.824Z,20.80
2023-09-06T05:13:39.375Z,20.80
2023-09-06T05:16:27.680Z,20.80
2023-09-06T05:19:17.856Z,20.90
2023-09-06T05:22:03.566Z,21.00
2023-09-06T05:24:51.402Z,21.00
2023-09-06T05:27:38.469Z,21.20
2023-09-06T05:30:24.513Z,21.20
2023-09-06T05:33:11.275Z,21.50
2023-09-06T05:36:00.065Z,21.90
2023-09-06T05:38:46.464Z,22.90
2023-09-06T05:41:33.516Z,24.00
2023-09-06T05:44:19.430Z,24.00
2023-09-06T05:47:06.801Z,23.70
2023-09-06T05:49:56.788Z,23.90
2023-09-06T05:52:44.441Z,23.70
2023-09-06T05:55:30.018Z,23.90
2023-09-06T05:58:17.320Z,24.00
2023-09-06T06:01:03.488Z,24.50
2023-09-06T06:03:49.548Z,25.00
2023-09-06T06:06:36.199Z,25.50
2023-09-06T06:09:26.089Z,26.10
2023-09-06T06:12:11.790Z,27.30
2023-09-06T06:14:58.277Z,28.20
2023-09-06T06:17:44.215Z,28.90
2023-09-06T06:20:38.377Z,29.40
2023-09-06T06:23:31.057Z,30.20
2023-09-06T06:26:21.330Z,31.20
2023-09-06T06:29:07.117Z,32.00
2023-09-06T06:31:53.529Z,32.50
2023-09-06T06:34:40.483Z,32.70
2023-09-06T06:37:27.338Z,32.40
2023-09-06T06:40:13.156Z,33.00
2023-09-06T06:42:59.981Z,33.60
2023-09-06T06:45:48.018Z,33.30
2023-09-06T06:48:33.954Z,33.40
2023-09-06T06:51:19.545Z,33.90
2023-09-06T06:54:05.946Z,35.00
2023-09-06T06:56:51.552Z,36.30
2023-09-06T06:59:38.464Z,37.40
2023-09-06T07:02:24.140Z,37.80
2023-09-06T07:05:10.123Z,37.50
2023-09-06T07:07:56.272Z,37.30
2023-09-06T07:10:41.933Z,37.90
2023-09-06T07:13:27.937Z,38.10
2023-09-06T07:16:15.593Z,38.60
2023-09-06T07:19:01.633Z,38.40
2023-09-06T07:21:48.110Z,38.50
2023-09-06T07:24:34.080Z,38.40
2023-09-06T07:27:19.651Z,38.60
2023-09-06T07:30:06.830Z,38.90
2023-09-06T07:32:54.494Z,38.60
2023-09-06T07:35:43.385Z,39.20
2023-09-06T07:38:29.812Z,39.30
2023-09-06T07:41:15.699Z,38.70
2023-09-06T07:44:01.770Z,38.60
2023-09-06T07:46:49.990Z,37.50
2023-09-06T07:49:37.905Z,36.00
2023-09-06T07:52:23.808Z,34.90
2023-09-06T07:55:09.771Z,33.40
2023-09-06T07:57:55.541Z,33.00
2023-09-06T08:00:41.619Z,32.70
2023-09-06T08:03:27.642Z,32.20
2023-09-06T08:06:16.007Z,31.50
2023-09-06T08:09:02.198Z,31.50
2023-09-06T08:11:47.666Z,31.20
2023-09-06T08:14:34.287Z,31.00
2023-09-06T08:17:20.599Z,30.10
2023-09-06T08:20:09.944Z,30.40
2023-09-06T08:22:57.228Z,30.80
2023-09-06T08:25:43.116Z,31.10
2023-09-06T08:28:28.611Z,31.60
2023-09-06T08:31:14.727Z,32.20
2023-09-06T08:34:01.003Z,32.90
2023-09-06T08:36:46.964Z,33.00
2023-09-06T08:39:35.867Z,33.70
2023-09-06T08:42:23.721Z,34.20
2023-09-06T08:45:10.115Z,33.90
2023-09-06T08:47:56.941Z,34.80
2023-09-06T08:50:45.272Z,35.80
2023-09-06T08:53:32.471Z,36.50
2023-09-06T08:56:20.691Z,37.10
2023-09-06T08:59:08.992Z,37.00
2023-09-06T09:01:55.125Z,36.90
2023-09-06T09:04:43.268Z,36.70
2023-09-06T09:07:29.449Z,36.50
2023-09-06T09:10:15.333Z,36.80
2023-09-06T09:13:02.921Z,36.50
2023-09-06T09:15:48.828Z,37.50
2023-09-06T09:18:35.598Z,38.00
2023-09-06T09:21:21.575Z,37.80
2023-09-06T09:24:07.266Z,38.40
2023-09-06T09:26:54.305Z,38.50
2023-09-06T09:29:42.404Z,39.10
2023-09-06T09:32:30.053Z,38.70
2023-09-06T09:35:15.869Z,40.00
2023-09-06T09:38:02.765Z,40.20
2023-09-06T09:41:07.005Z,41.00
2023-09-06T09:44:13.920Z,41.00
2023-09-06T09:47:31.160Z,41.50
2023-09-06T09:50:18.349Z,41.80
2023-09-06T09:53:18.968Z,41.80
2023-09-06T09:56:08.473Z,41.70
2023-09-06T09:58:55.934Z,41.50
2023-09-06T10:01:42.548Z,41.70
2023-09-06T10:04:30.800Z,41.60
2023-09-06T10:07:20.742Z,40.80
2023-09-06T10:10:07.813Z,41.80
2023-09-06T10:12:54.313Z,41.40
2023-09-06T10:15:40.212Z,41.70
2023-09-06T10:18:25.917Z,42.30
2023-09-06T10:21:14.594Z,42.70
2023-09-06T10:24:01.850Z,43.50
2023-09-06T10:26:48.863Z,43.70
2023-09-06T10:30:03.222Z,43.50
2023-09-06T10:32:49.656Z,43.00
2023-09-06T10:35:42.889Z,43.20
2023-09-06T10:38:31.831Z,43.30
2023-09-06T10:41:19.874Z,43.10
2023-09-06T10:44:07.599Z,43.30
2023-09-06T10:46:53.378Z,43.10
2023-09-06T10:49:39.079Z,43.10
2023-09-06T10:52:40.205Z,42.70
2023-09-06T10:55:28.268Z,41.90
2023-09-06T10:58:14.480Z,41.50
2023-09-06T11:01:19.090Z,42.50
2023-09-06T11:04:15.426Z,41.70
2023-09-06T11:07:05.407Z,43.10
2023-09-06T11:09:52.710Z,42.70
2023-09-06T11:12:40.211Z,42.40
2023-09-06T11:15:25.964Z,42.30
2023-09-06T11:18:12.003Z,42.50
2023-09-06T11:21:00.288Z,42.50
2023-09-06T11:23:47.644Z,41.80
2023-09-06T11:26:35.985Z,41.60
2023-09-06T11:29:27.258Z,40.80
2023-09-06T11:32:13.617Z,41.10
2023-09-06T11:34:59.333Z,40.50
2023-09-06T11:37:50.306Z,39.90
2023-09-06T11:40:36.737Z,39.50
2023-09-06T11:43:25.232Z,39.60
2023-09-06T11:46:15.443Z,39.70
2023-09-06T11:49:01.546Z,40.70
2023-09-06T11:51:49.018Z,40.80
2023-09-06T11:54:39.959Z,40.00
2023-09-06T11:57:31.427Z,39.40
2023-09-06T12:00:29.488Z,39.50
2023-09-06T12:03:17.888Z,39.60
2023-09-06T12:06:07.047Z,39.20
2023-09-06T12:08:52.805Z,39.10
2023-09-06T12:11:39.221Z,39.70
2023-09-06T12:14:25.367Z,39.50
2023-09-06T12:17:12.616Z,39.10
2023-09-06T12:20:00.350Z,39.50
2023-09-06T12:22:46.987Z,40.40
2023-09-06T12:25:32.899Z,40.70
2023-09-06T12:28:18.755Z,40.30
2023-09-06T12:31:16.558Z,40.10
2023-09-06T12:34:04.841Z,40.40
2023-09-06T12:36:52.230Z,39.90
2023-09-06T12:39:38.161Z,39.90
2023-09-06T12:42:23.737Z,40.70
2023-09-06T12:45:10.772Z,40.90
2023-09-06T12:47:58.291Z,40.60
2023-09-06T12:50:44.145Z,40.70
2023-09-06T12:53:31.477Z,40.80
2023-09-06T12:56:19.758Z,41.10
2023-09-06T12:59:06.803Z,40.40
2023-09-06T13:01:52.950Z,40.10
2023-09-06T13:04:38.870Z,39.80
2023-09-06T13:07:24.707Z,39.50
2023-09-06T13:10:11.895Z,39.10
2023-09-06T13:12:58.012Z,39.10
2023-09-06T13:15:43.515Z,39.00
2023-09-06T13:18:30.092Z,38.80
2023-09-06T13:21:16.606Z,39.50
2023-09-06T13:24:02.598Z,39.20
2023-09-06T13:26:54.497Z,39.60
2023-09-06T13:29:40.523Z,39.50
2023-09-06T13:32:26.975Z,39.30
2023-09-06T13:35:12.990Z,38.20
2023-09-06T13:37:59.041Z,38.10
2023-09-06T13:40:45.651Z,37.50
2023-09-06T13:43:33.238Z,37.60
2023-09-06T13:46:19.202Z,38.00
2023-09-06T13:49:08.701Z,37.60
2023-09-06T13:51:54.906Z,37.90
2023-09-06T13:54:44.646Z,37.90
2023-09-06T13:57:30.464Z,38.30
2023-09-06T14:00:20.082Z,38.00
2023-09-06T14:03:06.260Z,37.50
2023-09-06T14:05:52.754Z,37.30
2023-09-06T14:08:40.641Z,37.20
2023-09-06T14:11:46.225Z,36.80
2023-09-06T14:14:32.810Z,36.40
2023-09-06T14:17:22.421Z,36.20
2023-09-06T14:20:10.780Z,36.40
2023-09-06T14:22:57.048Z,36.60
2023-09-06T14:25:45.051Z,36.50
2023-09-06T14:28:31.250Z,36.70
2023-09-06T14:31:19.711Z,36.50
2023-09-06T14:34:06.619Z,36.60
2023-09-06T14:36:52.809Z,36.40
2023-09-06T14:39:38.735Z,36.00
2023-09-06T14:42:24.481Z,36.20
2023-09-06T14:45:13.381Z,36.50
2023-09-06T14:47:59.523Z,36.90
2023-09-06T14:51:15.556Z,36.50
2023-09-06T14:54:02.516Z,36.50
2023-09-06T14:56:48.355Z,36.40
2023-09-06T14:59:35.813Z,36.30
2023-09-06T15:02:22.021Z,36.20
2023-09-06T15:05:09.070Z,36.40
2023-09-06T15:07:58.271Z,35.70
2023-09-06T15:10:45.839Z,35.10
2023-09-06T15:13:31.631Z,34.60
2023-09-06T15:16:17.698Z,34.10
2023-09-06T15:19:04.366Z,33.90
2023-09-06T15:21:50.628Z,33.60
2023-09-06T15:24:38.085Z,33.60
2023-09-06T15:27:24.509Z,33.50
2023-09-06T15:30:10.911Z,33.20
2023-09-06T15:32:57.104Z,33.10
2023-09-06T15:35:44.047Z,33.10
2023-09-06T15:38:31.235Z,32.70
2023-09-06T15:41:19.158Z,32.60
2023-09-06T15:44:06.055Z,32.40
2023-09-06T15:46:56.538Z,32.40
2023-09-06T15:49:44.329Z,32.30
2023-09-06T15:52:31.550Z,32.50
2023-09-06T15:55:17.844Z,32.50
2023-09-06T15:58:05.093Z,32.50
2023-09-06T16:00:50.692Z,32.10
2023-09-06T16:03:36.550Z,31.90
2023-09-06T16:06:24.060Z,32.10
2023-09-06T16:09:13.810Z,32.20
2023-09-06T16:12:00.003Z,32.00
2023-09-06T16:14:53.035Z,32.10
2023-09-06T16:17:39.426Z,32.20
2023-09-06T16:20:25.943Z,32.30
2023-09-06T16:23:11.704Z,32.40
2023-09-06T16:25:57.814Z,32.50
2023-09-06T16:28:43.943Z,32.30
2023-09-06T16:31:32.113Z,32.30
2023-09-06T16:34:18.238Z,32.20
2023-09-06T16:37:04.921Z,32.10
2023-09-06T16:39:50.771Z,32.30
2023-09-06T16:42:36.804Z,32.30
2023-09-06T16:45:22.727Z,32.20
2023-09-06T16:48:11.046Z,32.00
2023-09-06T16:50:56.967Z,32.00
2023-09-06T16:53:42.653Z,32.10
2023-09-06T16:56:28.611Z,32.20
2023-09-06T16:59:16.129Z,32.30
2023-09-06T17:02:02.266Z,32.30
2023-09-06T17:04:49.720Z,32.30
2023-09-06T17:07:36.419Z,32.10
2023-09-06T17:10:22.491Z,32.20
2023-09-06T17:13:08.630Z,32.10
2023-09-06T17:15:54.692Z,32.30
2023-09-06T17:18:45.611Z,32.30
2023-09-06T17:21:36.157Z,32.60
2023-09-06T17:24:22.316Z,32.90
2023-09-06T17:27:09.668Z,33.10
2023-09-06T17:29:59.944Z,33.40
2023-09-06T17:33:15.113Z,33.50
2023-09-06T17:36:01.064Z,33.70
2023-09-06T17:38:49.012Z,33.70
2023-09-06T17:41:35.092Z,33.70
2023-09-06T17:44:21.295Z,33.60
2023-09-06T17:47:08.271Z,33.40
2023-09-06T17:49:54.404Z,33.20
2023-09-06T17:52:40.102Z,32.90
2023-09-06T17:55:33.320Z,32.60
2023-09-06T17:58:21.250Z,32.30
2023-09-06T18:01:10.980Z,32.00
2023-09-06T18:04:01.505Z,31.70
2023-09-06T18:06:47.326Z,31.40
2023-09-06T18:09:34.759Z,31.00
2023-09-06T18:12:23.494Z,30.70
2023-09-06T18:15:13.406Z,30.40
2023-09-06T18:18:01.364Z,30.10
2023-09-06T18:20:47.634Z,29.90
2023-09-06T18:23:34.487Z,29.60
2023-09-06T18:26:22.801Z,29.40
2023-09-06T18:29:11.348Z,29.10
2023-09-06T18:31:57.466Z,28.80
2023-09-06T18:34:43.119Z,28.60
2023-09-06T18:37:29.380Z,28.30
2023-09-06T18:40:16.542Z,28.10
2023-09-06T18:43:03.566Z,28.00
2023-09-06T18:45:52.994Z,27.80
2023-09-06T18:48:40.136Z,27.70
2023-09-06T18:51:26.390Z,27.60
2023-09-06T18:54:11.898Z,27.50
2023-09-06T18:56:57.943Z,27.30
2023-09-06T18:59:43.889Z,27.20
2023-09-06T19:02:31.487Z,27.10
2023-09-06T19:05:20.782Z,27.00
2023-09-06T19:08:12.820Z,26.90
2023-09-06T19:10:59.233Z,26.80
2023-09-06T19:13:44.760Z,26.60
2023-09-06T19:16:33.777Z,26.60
2023-09-06T19:19:20.974Z,26.60
2023-09-06T19:22:07.998Z,26.50
2023-09-06T19:24:53.832Z,26.40
2023-09-06T19:27:40.545Z,26.30
2023-09-06T19:30:26.865Z,26.30
2023-09-06T19:33:15.341Z,26.20
2023-09-06T19:36:03.311Z,26.10
2023-09-06T19:38:49.072Z,26.00
2023-09-06T19:41:34.907Z,25.90
2023-09-06T19:44:20.556Z,25.80
2023-09-06T19:47:06.584Z,25.70
2023-09-06T19:49:55.484Z,25.70
2023-09-06T19:52:42.590Z,25.70
2023-09-06T19:55:35.735Z,25.60
2023-09-06T19:58:21.319Z,25.50
2023-09-06T20:01:08.768Z,25.40
2023-09-06T20:03:54.642Z,25.30
2023-09-06T20:06:40.436Z,25.20
2023-09-06T20:09:31.376Z,25.10
2023-09-06T20:12:16.823Z,25.10
2023-09-06T20:15:02.422Z,25.00
2023-09-06T20:17:48.049Z,24.90
2023-09-06T20:20:37.778Z,24.80
2023-09-06T20:23:23.930Z,24.80
2023-09-06T20:26:11.468Z,24.70
2023-09-06T20:29:01.451Z,24.60
2023-09-06T20:31:47.655Z,24.60
2023-09-06T20:34:33.749Z,24.60
2023-09-06T20:37:19.566Z,24.50
2023-09-06T20:40:07.068Z,24.50
2023-09-06T20:42:54.683Z,24.50
2023-09-06T20:45:41.177Z,24.40
2023-09-06T20:48:30.059Z,24.40
2023-09-06T20:51:16.170Z,24.30
2023-09-06T20:54:01.983Z,24.30
2023-09-06T20:56:47.934Z,24.30
2023-09-06T20:59:35.092Z,24.20
2023-09-06T21:02:21.013Z,24.20
2023-09-06T21:05:07.279Z,24.10
2023-09-06T21:07:53.349Z,24.10
2023-09-06T21:10:39.229Z,24.00
2023-09-06T21:13:25.926Z,24.00
2023-09-06T21:16:12.939Z,23.90
2023-09-06T21:18:59.259Z,23.90
2023-09-06T21:21:45.214Z,23.90
2023-09-06T21:24:31.290Z,23.90
2023-09-06T21:27:16.873Z,23.80
2023-09-06T21:30:03.122Z,23.70
2023-09-06T21:32:50.807Z,23.70
2023-09-06T21:35:41.828Z,23.70
2023-09-06T21:38:27.306Z,23.70
2023-09-06T21:41:13.383Z,23.60
2023-09-06T21:44:00.236Z,23.50
2023-09-06T21:46:45.885Z,23.50
2023-09-06T21:49:33.429Z,23.50
2023-09-06T21:52:18.956Z,23.40
2023-09-06T21:55:05.625Z,23.40
2023-09-06T21:58:03.255Z,23.30
2023-09-06T22:00:57.296Z,23.30
2023-09-06T22:04:02.159Z,23.20
2023-09-06T22:07:10.714Z,23.20
2023-09-06T22:10:15.762Z,23.20
2023-09-06T22:13:20.886Z,23.10
2023-09-06T22:16:07.081Z,23.00
2023-09-06T22:18:54.628Z,23.00
2023-09-06T22:21:40.407Z,22.90
2023-09-06T22:24:27.544Z,22.90
2023-09-06T22:27:13.018Z,22.80
2023-09-06T22:29:58.952Z,22.80
2023-09-06T22:32:44.769Z,22.80
2023-09-06T22:35:30.664Z,22.70
2023-09-06T22:38:16.285Z,22.70
2023-09-06T22:41:03.191Z,22.60
2023-09-06T22:43:49.305Z,22.60
2023-09-06T22:46:35.228Z,22.50
2023-09-06T22:49:21.222Z,22.50
2023-09-06T22:52:08.160Z,22.40
2023-09-06T22:54:54.232Z,22.40
2023-09-06T22:57:41.550Z,22.40
2023-09-06T23:00:27.532Z,22.30
2023-09-06T23:03:15.179Z,22.30
2023-09-06T23:06:01.422Z,22.30
2023-09-06T23:08:47.438Z,22.30
2023-09-06T23:11:35.448Z,22.20
2023-09-06T23:14:25.122Z,22.20
2023-09-06T23:17:13.645Z,22.10
2023-09-06T23:20:00.994Z,22.10
2023-09-06T23:22:48.593Z,22.10
2023-09-06T23:25:37.644Z,22.10
2023-09-06T23:28:24.774Z,22.00
2023-09-06T23:31:14.323Z,21.90
2023-09-06T23:34:03.272Z,21.90
2023-09-06T23:36:49.418Z,21.90
2023-09-06T23:39:35.176Z,21.90
2023-09-06T23:42:21.082Z,21.80
2023-09-06T23:45:07.226Z,21.80
2023-09-06T23:47:57.743Z,21.80
2023-09-06T23:50:45.335Z,21.70
2023-09-06T23:53:31.085Z,21.70
2023-09-06T23:56:18.248Z,21.60
2023-09-06T23:59:05.192Z,21.60
